createdAt,value
2018-06-18T00:00:01.513Z,1016.01
2018-06-18T00:01:10.623Z,1016
2018-06-18T00:02:19.792Z,1015.99
2018-06-18T00:03:29.730Z,1015.98
2018-06-18T00:04:39.163Z,1016.03
2018-06-18T00:05:48.590Z,1016.03
2018-06-18T00:06:58.545Z,1016.06
2018-06-18T00:08:07.751Z,1016.11
2018-06-18T00:09:16.667Z,1016.09
2018-06-18T00:10:25.842Z,1016.05
2018-06-18T00:11:35.293Z,1016.01
2018-06-18T00:12:44.480Z,1016.03
2018-06-18T00:13:54.492Z,1016
2018-06-18T00:15:04.191Z,1015.97
2018-06-18T00:16:13.641Z,1015.99
2018-06-18T00:17:23.599Z,1015.99
2018-06-18T00:18:33.107Z,1016.05
2018-06-18T00:19:42.284Z,1016.05
2018-06-18T00:20:51.472Z,1016.03
2018-06-18T00:22:00.644Z,1016.06
2018-06-18T00:23:10.362Z,1016.11
2018-06-18T00:24:19.020Z,1016.12
2018-06-18T00:25:28.703Z,1016.11
2018-06-18T00:26:38.377Z,1016.19
2018-06-18T00:27:47.614Z,1016.19
2018-06-18T00:28:56.781Z,1016.17
2018-06-18T00:30:05.708Z,1016.16
2018-06-18T00:31:15.754Z,1016.11
2018-06-18T00:32:25.435Z,1016.08
2018-06-18T00:33:34.887Z,1016.06
2018-06-18T00:34:44.314Z,1015.99
2018-06-18T00:35:54.055Z,1015.97
2018-06-18T00:37:03.479Z,1015.93
2018-06-18T00:38:13.184Z,1015.92
2018-06-18T00:39:22.363Z,1015.88
2018-06-18T00:40:31.786Z,1015.88
2018-06-18T00:41:41.728Z,1015.89
2018-06-18T00:42:50.890Z,1015.91
2018-06-18T00:44:00.067Z,1015.94
2018-06-18T00:45:09.772Z,1015.95
2018-06-18T00:46:19.190Z,1015.96
2018-06-18T00:47:28.614Z,1015.91
2018-06-18T00:48:38.294Z,1015.87
2018-06-18T00:49:47.723Z,1015.84
2018-06-18T00:50:57.179Z,1015.84
2018-06-18T00:52:05.903Z,1015.84
2018-06-18T00:53:14.820Z,1015.9
2018-06-18T00:54:24.250Z,1015.89
2018-06-18T00:55:33.687Z,1015.85
2018-06-18T00:56:44.068Z,1015.88
2018-06-18T00:57:53.763Z,1015.88
2018-06-18T00:59:02.919Z,1015.87
2018-06-18T01:00:12.084Z,1015.83
2018-06-18T01:01:21.257Z,1015.83
2018-06-18T01:02:31.224Z,1015.84
2018-06-18T01:03:40.901Z,1015.83
2018-06-18T01:04:49.817Z,1015.87
2018-06-18T01:05:59.249Z,1015.85
2018-06-18T01:07:08.147Z,1015.83
2018-06-18T01:08:17.341Z,1015.8
2018-06-18T01:09:27.020Z,1015.8
2018-06-18T01:10:36.180Z,1015.78
2018-06-18T01:11:45.623Z,1015.79
2018-06-18T01:12:55.058Z,1015.78
2018-06-18T01:14:04.756Z,1015.74
2018-06-18T01:15:14.187Z,1015.73
2018-06-18T01:16:23.110Z,1015.72
2018-06-18T01:17:32.292Z,1015.66
2018-06-18T01:18:41.983Z,1015.65
2018-06-18T01:19:51.401Z,1015.6
2018-06-18T01:21:00.649Z,1015.6
2018-06-18T01:22:09.826Z,1015.61
2018-06-18T01:23:18.731Z,1015.59
2018-06-18T01:24:28.664Z,1015.61
2018-06-18T01:25:38.597Z,1015.68
2018-06-18T01:26:47.511Z,1015.71
2018-06-18T01:27:56.923Z,1015.75
2018-06-18T01:29:06.652Z,1015.75
2018-06-18T01:30:16.078Z,1015.8
2018-06-18T01:31:25.777Z,1015.78
2018-06-18T01:32:35.263Z,1015.77
2018-06-18T01:33:44.692Z,1015.76
2018-06-18T01:34:54.630Z,1015.74
2018-06-18T01:36:03.545Z,1015.75
2018-06-18T01:37:13.207Z,1015.78
2018-06-18T01:38:22.653Z,1015.78
2018-06-18T01:39:32.333Z,1015.78
2018-06-18T01:40:41.498Z,1015.77
2018-06-18T01:41:50.682Z,1015.77
2018-06-18T01:43:00.130Z,1015.77
2018-06-18T01:44:09.564Z,1015.76
2018-06-18T01:45:19.011Z,1015.75
2018-06-18T01:46:28.439Z,1015.75
2018-06-18T01:47:37.616Z,1015.74
2018-06-18T01:48:46.533Z,1015.73
2018-06-18T01:49:55.970Z,1015.75
2018-06-18T01:51:05.164Z,1015.74
2018-06-18T01:52:14.331Z,1015.72
2018-06-18T01:53:22.974Z,1015.73
2018-06-18T01:54:32.420Z,1015.78
2018-06-18T01:55:41.079Z,1015.74
2018-06-18T01:56:50.502Z,1015.72
2018-06-18T01:57:59.415Z,1015.72
2018-06-18T01:59:08.586Z,1015.74
2018-06-18T02:00:17.745Z,1015.71
2018-06-18T02:01:27.422Z,1015.72
2018-06-18T02:02:37.092Z,1015.8
2018-06-18T02:03:46.781Z,1015.76
2018-06-18T02:04:56.458Z,1015.72
2018-06-18T02:06:05.866Z,1015.7
2018-06-18T02:07:15.294Z,1015.72
2018-06-18T02:08:24.971Z,1015.73
2018-06-18T02:09:34.138Z,1015.73
2018-06-18T02:10:43.334Z,1015.7
2018-06-18T02:11:52.508Z,1015.65
2018-06-18T02:13:01.938Z,1015.71
2018-06-18T02:14:11.386Z,1015.72
2018-06-18T02:15:20.281Z,1015.72
2018-06-18T02:16:29.994Z,1015.75
2018-06-18T02:17:39.674Z,1015.76
2018-06-18T02:18:49.402Z,1015.75
2018-06-18T02:19:58.831Z,1015.72
2018-06-18T02:21:07.988Z,1015.72
2018-06-18T02:22:17.689Z,1015.67
2018-06-18T02:23:27.647Z,1015.67
2018-06-18T02:24:36.830Z,1015.63
2018-06-18T02:25:45.743Z,1015.68
2018-06-18T02:26:55.448Z,1015.65
2018-06-18T02:28:04.881Z,1015.69
2018-06-18T02:29:14.358Z,1015.7
2018-06-18T02:30:23.530Z,1015.67
2018-06-18T02:31:32.960Z,1015.63
2018-06-18T02:32:42.650Z,1015.61
2018-06-18T02:33:52.604Z,1015.62
2018-06-18T02:35:02.034Z,1015.61
2018-06-18T02:36:11.464Z,1015.6
2018-06-18T02:37:21.180Z,1015.62
2018-06-18T02:38:30.879Z,1015.61
2018-06-18T02:39:40.575Z,1015.6
2018-06-18T02:40:49.752Z,1015.61
2018-06-18T02:41:59.421Z,1015.59
2018-06-18T02:43:09.121Z,1015.58
2018-06-18T02:44:18.286Z,1015.55
2018-06-18T02:45:27.996Z,1015.54
2018-06-18T02:46:37.439Z,1015.54
2018-06-18T02:47:46.627Z,1015.53
2018-06-18T02:48:55.534Z,1015.53
2018-06-18T02:50:04.728Z,1015.55
2018-06-18T02:51:13.900Z,1015.55
2018-06-18T02:52:23.596Z,1015.55
2018-06-18T02:53:33.286Z,1015.55
2018-06-18T02:54:42.986Z,1015.58
2018-06-18T02:55:52.674Z,1015.61
2018-06-18T02:57:01.831Z,1015.66
2018-06-18T02:58:10.734Z,1015.6
2018-06-18T02:59:20.411Z,1015.63
2018-06-18T03:00:29.868Z,1015.59
2018-06-18T03:01:39.280Z,1015.64
2018-06-18T03:02:48.714Z,1015.54
2018-06-18T03:03:58.139Z,1015.51
2018-06-18T03:05:07.913Z,1015.52
2018-06-18T03:06:17.861Z,1015.52
2018-06-18T03:07:27.555Z,1015.54
2018-06-18T03:08:37.251Z,1015.59
2018-06-18T03:09:46.923Z,1015.6
2018-06-18T03:10:56.611Z,1015.61
2018-06-18T03:12:06.062Z,1015.66
2018-06-18T03:13:15.011Z,1015.69
2018-06-18T03:14:24.450Z,1015.7
2018-06-18T03:15:33.873Z,1015.73
2018-06-18T03:16:43.309Z,1015.74
2018-06-18T03:17:53.027Z,1015.76
2018-06-18T03:19:02.201Z,1015.78
2018-06-18T03:20:11.628Z,1015.75
2018-06-18T03:21:21.485Z,1015.73
2018-06-18T03:22:31.169Z,1015.69
2018-06-18T03:23:40.855Z,1015.67
2018-06-18T03:24:50.031Z,1015.68
2018-06-18T03:25:58.927Z,1015.7
2018-06-18T03:27:08.119Z,1015.68
2018-06-18T03:28:17.805Z,1015.72
2018-06-18T03:29:27.211Z,1015.77
2018-06-18T03:30:36.915Z,1015.75
2018-06-18T03:31:46.644Z,1015.73
2018-06-18T03:32:56.606Z,1015.75
2018-06-18T03:34:06.052Z,1015.76
2018-06-18T03:35:14.949Z,1015.72
2018-06-18T03:36:24.378Z,1015.75
2018-06-18T03:37:33.545Z,1015.74
2018-06-18T03:38:42.454Z,1015.72
2018-06-18T03:39:51.625Z,1015.73
2018-06-18T03:41:01.050Z,1015.73
2018-06-18T03:42:10.483Z,1015.74
2018-06-18T03:43:19.921Z,1015.72
2018-06-18T03:44:29.342Z,1015.75
2018-06-18T03:45:38.772Z,1015.76
2018-06-18T03:46:48.230Z,1015.71
2018-06-18T03:47:57.152Z,1015.73
2018-06-18T03:49:06.051Z,1015.71
2018-06-18T03:50:15.489Z,1015.67
2018-06-18T03:51:25.445Z,1015.66
2018-06-18T03:52:34.619Z,1015.65
2018-06-18T03:53:43.782Z,1015.65
2018-06-18T03:54:53.206Z,1015.67
2018-06-18T03:56:02.385Z,1015.67
2018-06-18T03:57:11.886Z,1015.7
2018-06-18T03:58:21.320Z,1015.73
2018-06-18T03:59:30.761Z,1015.75
2018-06-18T04:00:40.205Z,1015.74
2018-06-18T04:01:49.876Z,1015.77
2018-06-18T04:02:59.573Z,1015.77
2018-06-18T04:04:09.000Z,1015.79
2018-06-18T04:05:18.695Z,1015.81
2018-06-18T04:06:29.000Z,1015.84
2018-06-18T04:07:38.440Z,1015.83
2018-06-18T04:08:47.855Z,1015.8
2018-06-18T04:09:57.577Z,1015.82
2018-06-18T04:11:06.557Z,1015.77
2018-06-18T04:12:15.773Z,1015.83
2018-06-18T04:13:24.989Z,1015.85
2018-06-18T04:14:34.671Z,1015.85
2018-06-18T04:15:44.098Z,1015.88
2018-06-18T04:16:53.554Z,1015.92
2018-06-18T04:18:02.479Z,1015.9
2018-06-18T04:19:12.175Z,1015.88
2018-06-18T04:20:21.635Z,1015.9
2018-06-18T04:21:31.062Z,1015.87
2018-06-18T04:22:41.022Z,1015.88
2018-06-18T04:23:50.447Z,1015.88
2018-06-18T04:24:59.359Z,1015.89
2018-06-18T04:26:08.796Z,1015.88
2018-06-18T04:27:18.777Z,1015.89
2018-06-18T04:28:28.197Z,1015.88
2018-06-18T04:29:37.612Z,1015.9
2018-06-18T04:30:47.061Z,1015.88
2018-06-18T04:31:56.264Z,1015.87
2018-06-18T04:33:05.952Z,1015.83
2018-06-18T04:34:15.132Z,1015.83
2018-06-18T04:35:24.577Z,1015.82
2018-06-18T04:36:34.543Z,1015.86
2018-06-18T04:37:44.682Z,1015.86
2018-06-18T04:38:54.601Z,1015.87
2018-06-18T04:40:04.024Z,1015.85
2018-06-18T04:41:13.457Z,1015.89
2018-06-18T04:42:22.883Z,1015.85
2018-06-18T04:43:32.050Z,1015.89
2018-06-18T04:44:41.771Z,1015.87
2018-06-18T04:45:51.988Z,1015.9
2018-06-18T04:47:01.401Z,1015.92
2018-06-18T04:48:10.844Z,1015.92
2018-06-18T04:49:20.524Z,1015.91
2018-06-18T04:50:29.434Z,1015.92
2018-06-18T04:51:38.602Z,1015.89
2018-06-18T04:52:48.565Z,1015.86
2018-06-18T04:53:58.275Z,1015.87
2018-06-18T04:55:07.441Z,1015.86
2018-06-18T04:56:17.376Z,1015.91
2018-06-18T04:57:27.093Z,1015.89
2018-06-18T04:58:36.515Z,1015.88
2018-06-18T04:59:45.669Z,1015.85
2018-06-18T05:00:54.586Z,1015.88
2018-06-18T05:02:03.239Z,1015.84
2018-06-18T05:03:12.674Z,1015.92
2018-06-18T05:04:22.100Z,1015.87
2018-06-18T05:05:31.517Z,1015.89
2018-06-18T05:06:40.683Z,1015.88
2018-06-18T05:07:50.154Z,1015.89
2018-06-18T05:08:59.582Z,1015.96
2018-06-18T05:10:08.748Z,1015.96
2018-06-18T05:11:17.733Z,1015.96
2018-06-18T05:12:26.885Z,1015.99
2018-06-18T05:13:35.798Z,1015.93
2018-06-18T05:14:45.511Z,1015.94
2018-06-18T05:15:54.413Z,1015.89
2018-06-18T05:17:03.822Z,1015.87
2018-06-18T05:18:13.271Z,1015.88
2018-06-18T05:19:22.446Z,1015.93
2018-06-18T05:20:32.187Z,1015.91
2018-06-18T05:21:41.424Z,1015.97
2018-06-18T05:22:50.587Z,1015.99
2018-06-18T05:23:59.492Z,1015.98
2018-06-18T05:25:09.578Z,1016
2018-06-18T05:26:18.476Z,1016.01
2018-06-18T05:27:28.465Z,1016.02
2018-06-18T05:28:37.635Z,1016.06
2018-06-18T05:29:47.053Z,1016.01
2018-06-18T05:30:56.482Z,1016.02
2018-06-18T05:32:06.181Z,1016.06
2018-06-18T05:33:15.370Z,1016.02
2018-06-18T05:34:24.799Z,1016.02
2018-06-18T05:35:34.214Z,1015.99
2018-06-18T05:36:44.165Z,1016.03
2018-06-18T05:37:53.889Z,1016.03
2018-06-18T05:39:03.565Z,1016.07
2018-06-18T05:40:12.494Z,1016.06
2018-06-18T05:41:22.482Z,1016.07
2018-06-18T05:42:31.922Z,1016.05
2018-06-18T05:43:41.337Z,1016.08
2018-06-18T05:44:50.848Z,1016.08
2018-06-18T05:46:00.328Z,1016.04
2018-06-18T05:47:09.777Z,1016.05
2018-06-18T05:48:19.455Z,1016.03
2018-06-18T05:49:29.144Z,1016.02
2018-06-18T05:50:38.359Z,1016.02
2018-06-18T05:51:48.369Z,1016.07
2018-06-18T05:52:57.533Z,1016.04
2018-06-18T05:54:07.218Z,1016.06
2018-06-18T05:55:16.643Z,1016.09
2018-06-18T05:56:26.157Z,1016.08
2018-06-18T05:57:35.317Z,1016.09
2018-06-18T05:58:44.998Z,1016.12
2018-06-18T05:59:54.730Z,1016.15
2018-06-18T06:01:03.886Z,1016.16
2018-06-18T06:02:13.609Z,1016.16
2018-06-18T06:03:22.800Z,1016.17
2018-06-18T06:04:32.219Z,1016.15
2018-06-18T06:05:41.924Z,1016.16
2018-06-18T06:06:51.089Z,1016.1
2018-06-18T06:08:01.004Z,1016.09
2018-06-18T06:09:10.956Z,1016.05
2018-06-18T06:10:20.645Z,1016.02
2018-06-18T06:11:30.333Z,1016.03
2018-06-18T06:12:40.037Z,1016.06
2018-06-18T06:13:50.067Z,1016.06
2018-06-18T06:14:59.518Z,1016.09
2018-06-18T06:16:09.216Z,1016.12
2018-06-18T06:17:18.147Z,1016.1
2018-06-18T06:18:27.335Z,1016.1
2018-06-18T06:19:37.030Z,1016.12
2018-06-18T06:20:45.958Z,1016.08
2018-06-18T06:21:55.388Z,1016.1
2018-06-18T06:23:04.817Z,1016.08
2018-06-18T06:24:14.237Z,1016.09
2018-06-18T06:25:23.655Z,1016.05
2018-06-18T06:26:32.833Z,1016.07
2018-06-18T06:27:41.996Z,1016.04
2018-06-18T06:28:51.417Z,1016.04
2018-06-18T06:30:01.365Z,1016.05
2018-06-18T06:31:10.531Z,1016.08
2018-06-18T06:32:20.223Z,1016.06
2018-06-18T06:33:29.646Z,1016.08
2018-06-18T06:34:38.822Z,1016.11
2018-06-18T06:35:48.548Z,1016.1
2018-06-18T06:36:57.967Z,1016.13
2018-06-18T06:38:07.647Z,1016.12
2018-06-18T06:39:17.065Z,1016.15
2018-06-18T06:40:26.479Z,1016.12
2018-06-18T06:41:35.904Z,1016.16
2018-06-18T06:42:45.600Z,1016.11
2018-06-18T06:43:55.020Z,1016.11
2018-06-18T06:45:04.184Z,1016.17
2018-06-18T06:46:13.449Z,1016.12
2018-06-18T06:47:22.896Z,1016.15
2018-06-18T06:48:32.053Z,1016.15
2018-06-18T06:49:40.976Z,1016.18
2018-06-18T06:50:50.651Z,1016.18
2018-06-18T06:52:00.329Z,1016.22
2018-06-18T06:53:09.732Z,1016.19
2018-06-18T06:54:19.699Z,1016.15
2018-06-18T06:55:29.117Z,1016.14
2018-06-18T06:56:38.556Z,1016.22
2018-06-18T06:57:47.973Z,1016.26
2018-06-18T06:58:57.917Z,1016.22
2018-06-18T07:00:07.166Z,1016.23
2018-06-18T07:01:16.350Z,1016.32
2018-06-18T07:02:26.658Z,1016.33
2018-06-18T07:03:36.342Z,1016.35
2018-06-18T07:04:45.516Z,1016.39
2018-06-18T07:05:55.197Z,1016.41
2018-06-18T07:07:04.880Z,1016.42
2018-06-18T07:08:14.037Z,1016.44
2018-06-18T07:09:23.199Z,1016.45
2018-06-18T07:10:33.149Z,1016.49
2018-06-18T07:11:42.584Z,1016.48
2018-06-18T07:12:52.545Z,1016.51
2018-06-18T07:14:02.020Z,1016.51
2018-06-18T07:15:11.721Z,1016.46
2018-06-18T07:16:21.671Z,1016.47
2018-06-18T07:17:31.130Z,1016.46
2018-06-18T07:18:40.048Z,1016.46
2018-06-18T07:19:49.727Z,1016.43
2018-06-18T07:20:59.425Z,1016.46
2018-06-18T07:22:08.587Z,1016.44
2018-06-18T07:23:17.784Z,1016.43
2018-06-18T07:24:27.465Z,1016.4
2018-06-18T07:25:37.168Z,1016.43
2018-06-18T07:26:46.853Z,1016.42
2018-06-18T07:27:56.332Z,1016.39
2018-06-18T07:29:05.836Z,1016.4
2018-06-18T07:30:15.837Z,1016.4
2018-06-18T07:31:25.741Z,1016.46
2018-06-18T07:32:35.447Z,1016.44
2018-06-18T07:33:44.860Z,1016.44
2018-06-18T07:34:53.822Z,1016.44
2018-06-18T07:36:03.009Z,1016.45
2018-06-18T07:37:11.929Z,1016.46
2018-06-18T07:38:21.357Z,1016.47
2018-06-18T07:39:31.174Z,1016.5
2018-06-18T07:40:40.609Z,1016.47
2018-06-18T07:41:50.323Z,1016.47
2018-06-18T07:42:59.812Z,1016.5
2018-06-18T07:44:09.519Z,1016.47
2018-06-18T07:45:19.495Z,1016.55
2018-06-18T07:46:28.945Z,1016.56
2018-06-18T07:47:38.147Z,1016.54
2018-06-18T07:48:47.845Z,1016.59
2018-06-18T07:49:57.528Z,1016.63
2018-06-18T07:51:07.500Z,1016.6
2018-06-18T07:52:16.925Z,1016.61
2018-06-18T07:53:26.169Z,1016.64
2018-06-18T07:54:35.579Z,1016.64
2018-06-18T07:55:45.277Z,1016.65
2018-06-18T07:56:54.452Z,1016.64
2018-06-18T07:58:03.605Z,1016.63
2018-06-18T07:59:13.045Z,1016.6
2018-06-18T08:00:22.473Z,1016.57
2018-06-18T08:01:31.942Z,1016.57
2018-06-18T08:02:41.622Z,1016.59
2018-06-18T08:03:50.806Z,1016.53
2018-06-18T08:04:59.730Z,1016.48
2018-06-18T08:06:08.908Z,1016.47
2018-06-18T08:07:18.589Z,1016.46
2018-06-18T08:08:27.739Z,1016.4
2018-06-18T08:09:36.734Z,1016.42
2018-06-18T08:10:46.364Z,1016.44
2018-06-18T08:11:55.813Z,1016.4
2018-06-18T08:13:05.244Z,1016.41
2018-06-18T08:14:14.956Z,1016.38
2018-06-18T08:15:24.368Z,1016.39
2018-06-18T08:16:33.553Z,1016.35
2018-06-18T08:17:43.235Z,1016.36
2018-06-18T08:18:52.672Z,1016.32
2018-06-18T08:20:02.124Z,1016.36
2018-06-18T08:21:11.571Z,1016.37
2018-06-18T08:22:21.253Z,1016.39
2018-06-18T08:23:30.424Z,1016.43
2018-06-18T08:24:39.852Z,1016.42
2018-06-18T08:25:49.275Z,1016.48
2018-06-18T08:26:59.273Z,1016.45
2018-06-18T08:28:08.494Z,1016.45
2018-06-18T08:29:17.928Z,1016.44
2018-06-18T08:30:27.105Z,1016.47
2018-06-18T08:31:36.014Z,1016.48
2018-06-18T08:32:45.731Z,1016.48
2018-06-18T08:33:54.906Z,1016.49
2018-06-18T08:35:04.344Z,1016.46
2018-06-18T08:36:13.543Z,1016.44
2018-06-18T08:37:23.098Z,1016.46
2018-06-18T08:38:32.265Z,1016.51
2018-06-18T08:39:42.211Z,1016.47
2018-06-18T08:40:51.892Z,1016.49
2018-06-18T08:42:01.076Z,1016.5
2018-06-18T08:43:10.767Z,1016.53
2018-06-18T08:44:20.226Z,1016.5
2018-06-18T08:45:29.917Z,1016.51
2018-06-18T08:46:39.388Z,1016.54
2018-06-18T08:47:49.340Z,1016.53
2018-06-18T08:48:59.037Z,1016.54
2018-06-18T08:50:08.475Z,1016.51
2018-06-18T08:51:18.449Z,1016.56
2018-06-18T08:52:27.629Z,1016.53
2018-06-18T08:53:37.052Z,1016.53
2018-06-18T08:54:46.209Z,1016.49
2018-06-18T08:55:55.889Z,1016.52
2018-06-18T08:57:05.569Z,1016.51
2018-06-18T08:58:15.007Z,1016.49
2018-06-18T08:59:24.436Z,1016.43
2018-06-18T09:00:33.599Z,1016.43
2018-06-18T09:01:43.064Z,1016.46
2018-06-18T09:02:52.754Z,1016.47
2018-06-18T09:04:02.451Z,1016.48
2018-06-18T09:05:11.866Z,1016.52
2018-06-18T09:06:21.033Z,1016.48
2018-06-18T09:07:30.486Z,1016.49
2018-06-18T09:08:40.206Z,1016.42
2018-06-18T09:09:49.750Z,1016.4
2018-06-18T09:10:59.178Z,1016.41
2018-06-18T09:12:08.602Z,1016.38
2018-06-18T09:13:18.024Z,1016.39
2018-06-18T09:14:27.458Z,1016.45
2018-06-18T09:15:36.444Z,1016.46
2018-06-18T09:16:45.610Z,1016.46
2018-06-18T09:17:55.296Z,1016.39
2018-06-18T09:19:04.998Z,1016.41
2018-06-18T09:20:14.746Z,1016.39
2018-06-18T09:21:23.943Z,1016.37
2018-06-18T09:22:33.367Z,1016.39
2018-06-18T09:23:42.399Z,1016.36
2018-06-18T09:24:52.292Z,1016.41
2018-06-18T09:26:01.703Z,1016.39
2018-06-18T09:27:11.403Z,1016.38
2018-06-18T09:28:20.810Z,1016.4
2018-06-18T09:29:30.519Z,1016.39
2018-06-18T09:30:40.209Z,1016.38
2018-06-18T09:31:49.127Z,1016.4
2018-06-18T09:32:58.625Z,1016.35
2018-06-18T09:34:07.802Z,1016.36
2018-06-18T09:35:17.516Z,1016.37
2018-06-18T09:36:27.195Z,1016.38
2018-06-18T09:37:36.643Z,1016.42
2018-06-18T09:38:46.318Z,1016.44
2018-06-18T09:39:55.737Z,1016.43
2018-06-18T09:41:04.937Z,1016.46
2018-06-18T09:42:14.620Z,1016.4
2018-06-18T09:43:24.295Z,1016.45
2018-06-18T09:44:33.223Z,1016.43
2018-06-18T09:45:42.651Z,1016.44
2018-06-18T09:46:52.053Z,1016.46
2018-06-18T09:48:01.787Z,1016.45
2018-06-18T09:49:11.752Z,1016.45
2018-06-18T09:50:21.168Z,1016.42
2018-06-18T09:51:30.349Z,1016.36
2018-06-18T09:52:40.292Z,1016.32
2018-06-18T09:53:49.455Z,1016.35
2018-06-18T09:54:58.112Z,1016.28
2018-06-18T09:56:07.811Z,1016.32
2018-06-18T09:57:16.709Z,1016.34
2018-06-18T09:58:26.433Z,1016.36
2018-06-18T09:59:36.147Z,1016.32
2018-06-18T10:00:45.849Z,1016.32
2018-06-18T10:01:55.281Z,1016.27
2018-06-18T10:03:04.706Z,1016.23
2018-06-18T10:04:13.614Z,1016.29
2018-06-18T10:05:23.297Z,1016.23
2018-06-18T10:06:32.998Z,1016.28
2018-06-18T10:07:42.688Z,1016.27
2018-06-18T10:08:52.378Z,1016.27
2018-06-18T10:10:01.791Z,1016.27
2018-06-18T10:11:10.948Z,1016.28
2018-06-18T10:12:20.642Z,1016.22
2018-06-18T10:13:30.072Z,1016.23
2018-06-18T10:14:39.770Z,1016.26
2018-06-18T10:15:48.931Z,1016.27
2018-06-18T10:16:58.379Z,1016.24
2018-06-18T10:18:07.806Z,1016.21
2018-06-18T10:19:16.950Z,1016.19
2018-06-18T10:20:26.635Z,1016.21
2018-06-18T10:21:35.831Z,1016.19
2018-06-18T10:22:45.371Z,1016.22
2018-06-18T10:23:54.550Z,1016.22
2018-06-18T10:25:04.236Z,1016.27
2018-06-18T10:26:13.669Z,1016.28
2018-06-18T10:27:23.610Z,1016.23
2018-06-18T10:28:32.789Z,1016.22
2018-06-18T10:29:42.258Z,1016.24
2018-06-18T10:30:51.947Z,1016.22
2018-06-18T10:32:00.951Z,1016.22
2018-06-18T10:33:10.366Z,1016.23
2018-06-18T10:34:19.533Z,1016.25
2018-06-18T10:35:29.470Z,1016.22
2018-06-18T10:36:38.898Z,1016.23
2018-06-18T10:37:48.056Z,1016.19
2018-06-18T10:38:57.223Z,1016.2
2018-06-18T10:40:06.910Z,1016.15
2018-06-18T10:41:16.062Z,1016.15
2018-06-18T10:42:25.271Z,1016.15
2018-06-18T10:43:35.210Z,1016.17
2018-06-18T10:44:44.894Z,1016.15
2018-06-18T10:45:53.571Z,1016.15
2018-06-18T10:47:02.987Z,1016.11
2018-06-18T10:48:12.160Z,1016.12
2018-06-18T10:49:21.852Z,1016.09
2018-06-18T10:50:31.533Z,1016.14
2018-06-18T10:51:41.210Z,1016.08
2018-06-18T10:52:50.645Z,1016.1
2018-06-18T10:54:00.346Z,1016.09
2018-06-18T10:55:10.020Z,1016.16
2018-06-18T10:56:19.458Z,1016.11
2018-06-18T10:57:28.943Z,1016.15
2018-06-18T10:58:38.630Z,1016.11
2018-06-18T10:59:48.355Z,1016.11
2018-06-18T11:00:57.966Z,1016.15
2018-06-18T11:02:07.136Z,1016.2
2018-06-18T11:03:16.060Z,1016.17
2018-06-18T11:04:25.774Z,1016.22
2018-06-18T11:05:35.392Z,1016.16
2018-06-18T11:06:44.914Z,1016.17
2018-06-18T11:07:54.325Z,1016.14
2018-06-18T11:09:04.252Z,1016.17
2018-06-18T11:10:14.591Z,1016.17
2018-06-18T11:11:24.713Z,1016.2
2018-06-18T11:12:34.220Z,1016.24
2018-06-18T11:13:44.025Z,1016.22
2018-06-18T11:14:53.689Z,1016.2
2018-06-18T11:16:03.186Z,1016.22
2018-06-18T11:17:13.425Z,1016.2
2018-06-18T11:18:24.091Z,1016.2
2018-06-18T11:19:33.845Z,1016.27
2018-06-18T11:20:42.747Z,1016.23
2018-06-18T11:21:52.257Z,1016.29
2018-06-18T11:23:02.369Z,1016.29
2018-06-18T11:24:11.286Z,1016.25
2018-06-18T11:25:20.541Z,1016.22
2018-06-18T11:26:30.381Z,1016.2
2018-06-18T11:27:40.596Z,1016.22
2018-06-18T11:28:49.864Z,1016.23
2018-06-18T11:29:58.947Z,1016.24
2018-06-18T11:31:08.954Z,1016.25
2018-06-18T11:32:19.369Z,1016.21
2018-06-18T11:33:29.233Z,1016.22
2018-06-18T11:34:38.649Z,1016.19
2018-06-18T11:35:48.637Z,1016.23
2018-06-18T11:36:58.424Z,1016.14
2018-06-18T11:38:08.128Z,1016.21
2018-06-18T11:39:17.135Z,1016.22
2018-06-18T11:40:27.179Z,1016.22
2018-06-18T11:41:37.319Z,1016.22
2018-06-18T11:42:47.791Z,1016.24
2018-06-18T11:43:56.974Z,1016.23
2018-06-18T11:45:06.443Z,1016.27
2018-06-18T11:46:15.854Z,1016.28
2018-06-18T11:47:25.295Z,1016.28
2018-06-18T11:48:34.721Z,1016.35
2018-06-18T11:49:43.639Z,1016.31
2018-06-18T11:50:53.067Z,1016.35
2018-06-18T11:52:02.755Z,1016.35
2018-06-18T11:53:12.198Z,1016.33
2018-06-18T11:54:21.957Z,1016.36
2018-06-18T11:55:31.150Z,1016.32
2018-06-18T11:56:40.829Z,1016.3
2018-06-18T11:57:50.498Z,1016.29
2018-06-18T11:59:00.173Z,1016.27
2018-06-18T12:00:09.358Z,1016.27
2018-06-18T12:01:18.545Z,1016.28
2018-06-18T12:02:28.135Z,1016.23
2018-06-18T12:03:37.611Z,1016.25
2018-06-18T12:04:47.361Z,1016.23
2018-06-18T12:05:56.268Z,1016.26
2018-06-18T12:07:05.454Z,1016.25
2018-06-18T12:08:15.183Z,1016.2
2018-06-18T12:09:24.903Z,1016.24
2018-06-18T12:10:35.208Z,1016.26
2018-06-18T12:11:44.648Z,1016.25
2018-06-18T12:12:54.528Z,1016.29
2018-06-18T12:14:03.949Z,1016.29
2018-06-18T12:15:12.875Z,1016.29
2018-06-18T12:16:21.791Z,1016.28
2018-06-18T12:17:31.452Z,1016.32
2018-06-18T12:18:41.128Z,1016.28
2018-06-18T12:19:50.565Z,1016.28
2018-06-18T12:21:00.522Z,1016.33
2018-06-18T12:22:09.711Z,1016.35
2018-06-18T12:23:19.291Z,1016.4
2018-06-18T12:24:28.725Z,1016.38
2018-06-18T12:25:37.640Z,1016.35
2018-06-18T12:26:46.804Z,1016.35
2018-06-18T12:27:55.993Z,1016.34
2018-06-18T12:29:05.460Z,1016.35
2018-06-18T12:30:14.891Z,1016.38
2018-06-18T12:31:24.566Z,1016.42
2018-06-18T12:32:34.267Z,1016.42
2018-06-18T12:33:43.716Z,1016.44
2018-06-18T12:34:53.152Z,1016.4
2018-06-18T12:36:02.315Z,1016.39
2018-06-18T12:37:11.489Z,1016.41
2018-06-18T12:38:20.431Z,1016.46
2018-06-18T12:39:30.116Z,1016.44
2018-06-18T12:40:39.796Z,1016.47
2018-06-18T12:41:49.481Z,1016.49
2018-06-18T12:42:59.421Z,1016.47
2018-06-18T12:44:08.847Z,1016.5
2018-06-18T12:45:18.002Z,1016.52
2018-06-18T12:46:27.194Z,1016.5
2018-06-18T12:47:36.740Z,1016.52
2018-06-18T12:48:45.939Z,1016.51
2018-06-18T12:49:55.624Z,1016.55
2018-06-18T12:51:05.058Z,1016.56
2018-06-18T12:52:14.502Z,1016.52
2018-06-18T12:53:23.418Z,1016.48
2018-06-18T12:54:33.129Z,1016.49
2018-06-18T12:55:42.819Z,1016.46
2018-06-18T12:56:52.258Z,1016.45
2018-06-18T12:58:01.923Z,1016.44
2018-06-18T12:59:11.353Z,1016.47
2018-06-18T13:00:20.255Z,1016.43
2018-06-18T13:01:29.694Z,1016.39
2018-06-18T13:02:38.920Z,1016.39
2018-06-18T13:03:48.095Z,1016.37
2018-06-18T13:04:57.558Z,1016.38
2018-06-18T13:06:07.239Z,1016.39
2018-06-18T13:07:16.406Z,1016.44
2018-06-18T13:08:25.321Z,1016.39
2018-06-18T13:09:34.750Z,1016.41
2018-06-18T13:10:44.433Z,1016.36
2018-06-18T13:11:54.098Z,1016.38
2018-06-18T13:13:03.536Z,1016.39
2018-06-18T13:14:12.945Z,1016.38
2018-06-18T13:15:22.117Z,1016.35
2018-06-18T13:16:31.546Z,1016.36
2018-06-18T13:17:41.226Z,1016.42
2018-06-18T13:18:50.838Z,1016.43
2018-06-18T13:20:00.778Z,1016.41
2018-06-18T13:21:11.133Z,1016.4
2018-06-18T13:22:20.578Z,1016.37
2018-06-18T13:23:29.496Z,1016.35
2018-06-18T13:24:38.672Z,1016.38
2018-06-18T13:25:47.825Z,1016.36
2018-06-18T13:26:57.564Z,1016.42
2018-06-18T13:28:07.277Z,1016.39
2018-06-18T13:29:16.462Z,1016.38
2018-06-18T13:30:25.396Z,1016.35
2018-06-18T13:31:34.904Z,1016.34
2018-06-18T13:32:44.333Z,1016.36
2018-06-18T13:33:53.767Z,1016.33
2018-06-18T13:35:02.949Z,1016.33
2018-06-18T13:36:12.523Z,1016.33
2018-06-18T13:37:21.455Z,1016.34
2018-06-18T13:38:31.128Z,1016.35
2018-06-18T13:39:40.033Z,1016.35
2018-06-18T13:40:49.986Z,1016.37
2018-06-18T13:41:58.888Z,1016.4
2018-06-18T13:43:08.319Z,1016.42
2018-06-18T13:44:16.995Z,1016.4
2018-06-18T13:45:26.680Z,1016.42
2018-06-18T13:46:36.369Z,1016.41
2018-06-18T13:47:46.299Z,1016.4
2018-06-18T13:48:55.782Z,1016.41
2018-06-18T13:50:05.207Z,1016.44
2018-06-18T13:51:14.366Z,1016.45
2018-06-18T13:52:24.061Z,1016.48
2018-06-18T13:53:33.748Z,1016.5
2018-06-18T13:54:43.182Z,1016.47
2018-06-18T13:55:53.120Z,1016.47
2018-06-18T13:57:02.954Z,1016.45
2018-06-18T13:58:12.616Z,1016.47
2018-06-18T13:59:22.305Z,1016.48
2018-06-18T14:00:31.751Z,1016.51
2018-06-18T14:01:40.920Z,1016.53